Time;durP1;ratioP1;P1;durP2;ratioP2;P2;SDS_P1;SDS_P2;PMS_P1;PMS_P2;Temp;Humidity;BMP_temperature;BMP_pressure;BME280_temperature;BME280_humidity;BME280_pressure;Samples;Min_cycle;Max_cycle;Signal;HPM_P1;HPM_P2
2022/02/17 00:00:03;;;;;;;;;0.00;0.00;;;;;;;;5057410;28;8935;-79
2022/02/17 00:02:32;;;;;;;;;0.00;0.00;;;;;;;;5059992;28;8848;-77
2022/02/17 00:05:00;;;;;;;;;0.00;0.00;;;;;;;;5053158;28;8860;-79
2022/02/17 00:07:27;;;;;;;;;0.00;0.00;;;;;;;;5056971;28;8852;-78
2022/02/17 00:09:54;;;;;;;;;0.00;0.00;;;;;;;;5055536;28;8894;-77
2022/02/17 00:12:22;;;;;;;;;0.00;0.00;;;;;;;;5052696;28;8880;-76
2022/02/17 00:14:49;;;;;;;;;0.00;0.00;;;;;;;;5062349;28;8848;-79
2022/02/17 00:17:16;;;;;;;;;0.00;0.00;;;;;;;;5060298;28;8883;-78
2022/02/17 00:19:45;;;;;;;;;0.00;0.00;;;;;;;;5061699;28;8883;-78
2022/02/17 00:22:12;;;;;;;;;0.00;0.00;;;;;;;;5064016;28;8902;-77
2022/02/17 00:24:40;;;;;;;;;0.00;0.00;;;;;;;;5056610;28;8842;-76
2022/02/17 00:27:07;;;;;;;;;0.00;0.00;;;;;;;;5055692;28;8881;-79
2022/02/17 00:29:35;;;;;;;;;0.00;0.00;;;;;;;;5062035;28;8903;-78
2022/02/17 00:32:02;;;;;;;;;0.00;0.00;;;;;;;;5051917;28;8846;-78
2022/02/17 00:34:29;;;;;;;;;0.00;0.00;;;;;;;;5057079;28;8850;-78
2022/02/17 00:36:58;;;;;;;;;0.00;0.00;;;;;;;;5066289;28;8853;-78
2022/02/17 00:39:25;;;;;;;;;0.00;0.00;;;;;;;;5063354;28;8860;-78
2022/02/17 00:41:52;;;;;;;;;0.00;0.00;;;;;;;;5051511;28;8883;-79
2022/02/17 00:44:19;;;;;;;;;0.00;0.00;;;;;;;;5060902;28;8871;-78
2022/02/17 00:46:48;;;;;;;;;0.00;0.00;;;;;;;;5056297;28;8872;-78
2022/02/17 00:49:15;;;;;;;;;0.00;0.00;;;;;;;;5036950;28;8864;-78
2022/02/17 00:51:43;;;;;;;;;0.25;0.00;;;;;;;;5066934;28;8923;-78
2022/02/17 00:54:12;;;;;;;;;0.00;0.00;;;;;;;;5057097;28;8872;-78
2022/02/17 00:56:39;;;;;;;;;0.00;0.00;;;;;;;;5063936;28;8868;-78
2022/02/17 00:59:07;;;;;;;;;0.25;0.00;;;;;;;;5059313;28;8879;-77
2022/02/17 01:01:34;;;;;;;;;1.50;0.00;;;;;;;;5064176;28;8824;-78
2022/02/17 01:04:01;;;;;;;;;1.75;0.00;;;;;;;;5049855;28;8874;-79
2022/02/17 01:06:29;;;;;;;;;2.00;0.00;;;;;;;;5042096;28;8856;-79
2022/02/17 01:08:56;;;;;;;;;1.00;1.00;;;;;;;;5060611;28;8872;-78
2022/02/17 01:11:25;;;;;;;;;1.50;0.00;;;;;;;;5065386;28;8876;-79
2022/02/17 01:13:52;;;;;;;;;0.00;0.00;;;;;;;;5052264;28;8859;-79
2022/02/17 01:16:20;;;;;;;;;1.25;0.00;;;;;;;;5053554;28;9648;-79
2022/02/17 01:18:47;;;;;;;;;0.00;0.00;;;;;;;;5059141;28;8858;-77
2022/02/17 01:21:14;;;;;;;;;0.25;0.25;;;;;;;;5057862;28;8894;-78
2022/02/17 01:23:41;;;;;;;;;2.00;0.00;;;;;;;;5065831;28;8856;-78
2022/02/17 01:26:09;;;;;;;;;1.00;1.00;;;;;;;;5069286;28;8856;-79
2022/02/17 01:28:38;;;;;;;;;1.00;1.00;;;;;;;;5062334;28;8872;-79
2022/02/17 01:31:05;;;;;;;;;1.00;1.00;;;;;;;;5062732;28;8809;-78
2022/02/17 01:33:34;;;;;;;;;2.00;1.00;;;;;;;;5087851;28;8904;-79
2022/02/17 01:36:06;;;;;;;;;1.50;1.50;;;;;;;;5064947;28;8855;-79
2022/02/17 01:38:34;;;;;;;;;1.00;1.00;;;;;;;;5068881;28;8884;-78
2022/02/17 01:41:01;;;;;;;;;1.25;1.25;;;;;;;;5054465;28;8845;-78
2022/02/17 01:43:28;;;;;;;;;1.25;0.75;;;;;;;;5060842;28;8892;-78
2022/02/17 01:46:00;;;;;;;;;2.25;1.75;;;;;;;;5062279;28;9708;-79
2022/02/17 01:48:28;;;;;;;;;3.25;2.00;;;;;;;;5058131;28;8920;-78
2022/02/17 01:50:58;;;;;;;;;0.00;0.00;;;;;;;;5054430;28;8880;-79
2022/02/17 01:53:25;;;;;;;;;2.75;1.00;;;;;;;;5060129;28;8862;-79
2022/02/17 01:55:55;;;;;;;;;4.00;0.75;;;;;;;;5044723;28;8883;-78
2022/02/17 01:58:23;;;;;;;;;2.00;1.00;;;;;;;;5064592;28;8903;-79
2022/02/17 02:00:50;;;;;;;;;1.00;1.00;;;;;;;;5052786;28;8804;-80
2022/02/17 02:03:19;;;;;;;;;1.75;1.00;;;;;;;;5061065;28;9679;-78
2022/02/17 02:05:46;;;;;;;;;4.00;2.00;;;;;;;;5064277;28;8898;-79
2022/02/17 02:08:13;;;;;;;;;1.25;1.25;;;;;;;;5056091;28;8871;-79
2022/02/17 02:10:40;;;;;;;;;3.00;2.50;;;;;;;;5060380;28;8868;-79
2022/02/17 02:13:08;;;;;;;;;1.00;1.00;;;;;;;;5059908;28;8852;-78
2022/02/17 02:15:46;;;;;;;;;1.00;1.00;;;;;;;;5059139;28;8848;-79
2022/02/17 02:18:14;;;;;;;;;2.00;1.00;;;;;;;;5074262;28;8883;-79
2022/02/17 02:20:47;;;;;;;;;0.75;0.75;;;;;;;;5055880;28;8985;-79
2022/02/17 02:23:14;;;;;;;;;4.50;1.75;;;;;;;;5057431;28;8861;-79
2022/02/17 02:25:45;;;;;;;;;5.50;1.00;;;;;;;;5060960;28;8996;-79
2022/02/17 02:28:16;;;;;;;;;1.75;1.75;;;;;;;;5058352;28;8845;-80
2022/02/17 02:30:43;;;;;;;;;4.00;1.00;;;;;;;;5052635;28;8871;-79
2022/02/17 02:33:10;;;;;;;;;1.50;1.00;;;;;;;;5055202;28;8844;-78
2022/02/17 02:35:38;;;;;;;;;1.00;1.00;;;;;;;;5049830;28;8874;-79
2022/02/17 02:38:07;;;;;;;;;8.75;3.00;;;;;;;;5051317;28;8970;-78
2022/02/17 02:40:35;;;;;;;;;2.50;1.50;;;;;;;;5058508;28;8861;-79
2022/02/17 02:43:02;;;;;;;;;1.00;1.00;;;;;;;;5063357;28;8884;-79
2022/02/17 02:45:31;;;;;;;;;2.00;1.00;;;;;;;;5049461;28;8896;-79
2022/02/17 02:47:58;;;;;;;;;3.25;1.75;;;;;;;;5051304;28;8862;-79
2022/02/17 02:50:25;;;;;;;;;2.50;0.75;;;;;;;;5054854;28;8856;-79
2022/02/17 02:52:54;;;;;;;;;1.50;1.50;;;;;;;;5051911;28;8894;-79
2022/02/17 02:55:22;;;;;;;;;6.50;1.25;;;;;;;;5057879;28;8872;-77
2022/02/17 02:57:50;;;;;;;;;1.75;1.75;;;;;;;;5059618;28;9877;-79
2022/02/17 03:00:18;;;;;;;;;1.00;1.00;;;;;;;;5056807;28;8864;-78
2022/02/17 03:02:45;;;;;;;;;1.00;1.00;;;;;;;;5057921;28;8936;-79
2022/02/17 03:05:13;;;;;;;;;1.25;0.50;;;;;;;;5054589;28;9241;-78
2022/02/17 03:07:41;;;;;;;;;3.00;1.00;;;;;;;;5058055;28;8910;-79
2022/02/17 03:10:10;;;;;;;;;1.00;1.00;;;;;;;;5051823;28;8897;-80
2022/02/17 03:12:39;;;;;;;;;2.00;2.00;;;;;;;;5065040;28;8874;-79
2022/02/17 03:15:07;;;;;;;;;4.50;2.00;;;;;;;;5058892;28;9677;-79
2022/02/17 03:17:35;;;;;;;;;2.00;2.00;;;;;;;;5062210;28;8836;-79
2022/02/17 03:20:07;;;;;;;;;4.00;2.00;;;;;;;;5059692;28;8852;-79
2022/02/17 03:22:35;;;;;;;;;3.75;1.25;;;;;;;;5062775;28;9017;-78
2022/02/17 03:25:02;;;;;;;;;2.25;2.25;;;;;;;;5059452;28;8828;-79
2022/02/17 03:27:30;;;;;;;;;3.75;1.00;;;;;;;;5039642;28;8870;-79
2022/02/17 03:29:58;;;;;;;;;4.25;2.00;;;;;;;;5058943;28;8840;-79
2022/02/17 03:32:26;;;;;;;;;1.75;1.75;;;;;;;;5050174;28;8833;-79
2022/02/17 03:34:53;;;;;;;;;3.50;2.00;;;;;;;;5047131;28;8969;-79
2022/02/17 03:37:20;;;;;;;;;3.00;1.25;;;;;;;;5067570;28;8872;-78
2022/02/17 03:39:48;;;;;;;;;3.00;1.00;;;;;;;;5053054;28;9602;-79
2022/02/17 03:42:16;;;;;;;;;6.25;3.50;;;;;;;;5065227;28;8929;-79
2022/02/17 03:44:43;;;;;;;;;4.00;4.00;;;;;;;;5059885;28;8860;-79
2022/02/17 03:47:12;;;;;;;;;2.00;2.00;;;;;;;;5058860;28;8976;-79
2022/02/17 03:49:39;;;;;;;;;4.00;2.00;;;;;;;;5061402;28;8884;-78
2022/02/17 03:52:07;;;;;;;;;3.67;3.67;;;;;;;;5061587;28;9069;-79
2022/02/17 03:54:34;;;;;;;;;4.33;3.67;;;;;;;;5059386;28;9066;-79
2022/02/17 03:57:02;;;;;;;;;2.67;2.00;;;;;;;;5056057;28;9105;-79
2022/02/17 03:59:29;;;;;;;;;7.00;4.00;;;;;;;;5053983;28;9204;-79
2022/02/17 04:01:57;;;;;;;;;2.67;2.67;;;;;;;;5057404;28;9137;-79
2022/02/17 04:04:25;;;;;;;;;3.00;1.00;;;;;;;;5053331;28;9101;-78
2022/02/17 04:06:53;;;;;;;;;4.00;2.33;;;;;;;;5043713;28;9133;-79
2022/02/17 04:09:20;;;;;;;;;6.00;2.67;;;;;;;;5051872;28;9043;-79
2022/02/17 04:11:47;;;;;;;;;4.67;2.33;;;;;;;;5062845;28;9260;-80
2022/02/17 04:14:15;;;;;;;;;4.00;2.00;;;;;;;;5060507;28;9203;-79
2022/02/17 04:16:42;;;;;;;;;3.33;3.00;;;;;;;;5059942;28;9077;-78
2022/02/17 04:19:09;;;;;;;;;4.00;2.00;;;;;;;;5056097;28;9960;-79
2022/02/17 04:21:38;;;;;;;;;4.00;3.00;;;;;;;;5055300;28;9295;-79
2022/02/17 04:24:06;;;;;;;;;2.00;2.00;;;;;;;;5057079;28;9324;-79
2022/02/17 04:26:33;;;;;;;;;4.00;3.50;;;;;;;;5054924;28;9514;-78
2022/02/17 04:29:01;;;;;;;;;4.33;3.00;;;;;;;;5053041;28;9597;-78
2022/02/17 04:31:28;;;;;;;;;5.50;5.50;;;;;;;;5064341;28;9456;-79
2022/02/17 04:33:55;;;;;;;;;3.00;3.00;;;;;;;;5055603;28;9489;-78
2022/02/17 04:36:23;;;;;;;;;8.25;3.25;;;;;;;;5064976;28;9467;-78
2022/02/17 04:38:51;;;;;;;;;6.00;3.00;;;;;;;;5064401;28;9431;-79
2022/02/17 04:44:15;;;;;;;;;12.25;6.00;;;;;;;;5021742;28;9633;-80
2022/02/17 04:46:42;;;;;;;;;3.67;1.67;;;;;;;;5052307;28;9588;-79
2022/02/17 04:49:09;;;;;;;;;3.25;3.00;;;;;;;;5061607;28;10199;-78
2022/02/17 04:51:37;;;;;;;;;9.00;6.50;;;;;;;;5064796;28;9572;-80
2022/02/17 04:54:05;;;;;;;;;8.50;6.25;;;;;;;;5063501;28;9640;-77
2022/02/17 04:56:33;;;;;;;;;8.50;3.50;;;;;;;;5065587;28;9609;-78
2022/02/17 04:59:00;;;;;;;;;12.00;7.00;;;;;;;;5062318;28;9649;-79
2022/02/17 05:01:27;;;;;;;;;8.50;7.50;;;;;;;;5060788;28;9773;-79
2022/02/17 05:03:55;;;;;;;;;8.25;6.00;;;;;;;;5063151;28;9833;-79
2022/02/17 05:06:23;;;;;;;;;3.50;3.50;;;;;;;;5063855;28;9748;-80
2022/02/17 05:08:50;;;;;;;;;8.00;3.25;;;;;;;;5062471;28;9665;-78
2022/02/17 05:11:20;;;;;;;;;6.50;4.00;;;;;;;;5065874;28;9856;-79
2022/02/17 05:13:47;;;;;;;;;8.25;6.00;;;;;;;;5063385;28;9698;-77
2022/02/17 05:16:15;;;;;;;;;9.00;6.00;;;;;;;;5058955;28;9820;-79
2022/02/17 05:18:42;;;;;;;;;8.50;6.25;;;;;;;;5065463;28;9790;-79
2022/02/17 05:21:09;;;;;;;;;10.50;4.50;;;;;;;;5066722;28;10001;-79
2022/02/17 05:23:37;;;;;;;;;8.50;7.00;;;;;;;;5059485;28;9743;-78
2022/02/17 05:26:04;;;;;;;;;8.00;8.00;;;;;;;;5065745;28;9787;-79
2022/02/17 05:28:33;;;;;;;;;10.00;6.50;;;;;;;;5061279;28;9800;-79
2022/02/17 05:31:00;;;;;;;;;7.50;5.50;;;;;;;;5058263;28;9842;-80
2022/02/17 05:33:28;;;;;;;;;11.00;6.75;;;;;;;;5056113;28;9641;-79
2022/02/17 05:35:55;;;;;;;;;7.75;4.00;;;;;;;;5055366;28;9816;-77
2022/02/17 05:38:23;;;;;;;;;6.50;3.75;;;;;;;;5056621;28;9700;-79
2022/02/17 05:40:50;;;;;;;;;8.25;7.00;;;;;;;;5061854;28;9970;-79
2022/02/17 05:43:17;;;;;;;;;10.50;7.25;;;;;;;;5035473;28;10684;-80
2022/02/17 05:45:46;;;;;;;;;10.00;3.00;;;;;;;;5058908;28;9823;-78
2022/02/17 05:48:14;;;;;;;;;9.00;4.50;;;;;;;;5054961;28;9799;-79
2022/02/17 05:50:41;;;;;;;;;8.25;4.25;;;;;;;;5065294;28;9717;-79
2022/02/17 05:53:09;;;;;;;;;6.25;4.00;;;;;;;;5058957;28;9613;-79
2022/02/17 05:55:37;;;;;;;;;8.00;8.00;;;;;;;;5062016;28;9650;-79
2022/02/17 05:58:04;;;;;;;;;8.75;4.50;;;;;;;;5040746;28;9637;-79
2022/02/17 06:00:32;;;;;;;;;8.50;6.75;;;;;;;;5034730;28;9877;-77
2022/02/17 06:03:00;;;;;;;;;14.25;7.50;;;;;;;;5057230;28;9897;-79
2022/02/17 06:05:28;;;;;;;;;14.25;6.50;;;;;;;;5061456;28;9721;-77
2022/02/17 06:07:55;;;;;;;;;10.00;5.75;;;;;;;;5054323;28;9706;-77
2022/02/17 06:10:23;;;;;;;;;11.00;6.00;;;;;;;;5076382;28;9913;-77
2022/02/17 06:12:50;;;;;;;;;12.25;6.50;;;;;;;;5053376;28;9839;-78
2022/02/17 06:15:18;;;;;;;;;8.25;5.25;;;;;;;;5038385;28;9713;-79
2022/02/17 06:17:45;;;;;;;;;6.00;3.75;;;;;;;;5058774;28;9914;-77
2022/02/17 06:20:15;;;;;;;;;4.50;4.00;;;;;;;;5042524;28;9878;-77
2022/02/17 06:22:48;;;;;;;;;3.25;3.25;;;;;;;;5059340;28;9786;-78
2022/02/17 06:25:17;;;;;;;;;9.00;7.00;;;;;;;;5053902;28;9741;-77
2022/02/17 06:27:44;;;;;;;;;9.00;7.75;;;;;;;;5056373;28;9817;-77
2022/02/17 06:30:12;;;;;;;;;5.00;4.50;;;;;;;;5050483;28;9714;-79
2022/02/17 06:32:46;;;;;;;;;6.50;6.50;;;;;;;;5054203;28;9738;-78
2022/02/17 06:35:18;;;;;;;;;10.00;10.00;;;;;;;;5054221;28;9787;-76
2022/02/17 06:37:45;;;;;;;;;4.75;4.75;;;;;;;;5062143;28;10614;-83
2022/02/17 06:40:13;;;;;;;;;7.00;7.00;;;;;;;;5062990;28;9718;-86
2022/02/17 06:42:42;;;;;;;;;17.75;8.75;;;;;;;;5065837;28;9944;-77
2022/02/17 06:45:10;;;;;;;;;7.00;2.00;;;;;;;;5059075;28;9833;-81
2022/02/17 06:47:37;;;;;;;;;14.00;5.50;;;;;;;;5058198;28;9581;-79
2022/02/17 06:50:09;;;;;;;;;11.75;6.25;;;;;;;;5046501;28;9715;-81
2022/02/17 06:52:38;;;;;;;;;12.75;7.00;;;;;;;;5048120;28;9742;-79
2022/02/17 06:55:06;;;;;;;;;10.50;7.75;;;;;;;;5064006;28;9723;-81
2022/02/17 06:57:33;;;;;;;;;11.75;8.00;;;;;;;;5068102;28;9775;-81
2022/02/17 07:00:03;;;;;;;;;8.25;4.00;;;;;;;;5063253;28;9716;-84
2022/02/17 07:02:33;;;;;;;;;13.75;9.00;;;;;;;;5063507;28;9627;-81
2022/02/17 07:05:01;;;;;;;;;8.75;8.00;;;;;;;;5042379;28;10594;-84
2022/02/17 07:07:29;;;;;;;;;12.75;5.75;;;;;;;;5059357;28;9773;-82
2022/02/17 07:09:58;;;;;;;;;7.50;3.00;;;;;;;;5060993;28;9814;-85
2022/02/17 07:12:26;;;;;;;;;12.00;8.00;;;;;;;;5044506;28;9749;-84
2022/02/17 07:14:56;;;;;;;;;14.00;6.50;;;;;;;;5047584;28;9839;-84
2022/02/17 07:17:24;;;;;;;;;9.00;8.00;;;;;;;;5064438;28;9737;-82
2022/02/17 07:19:51;;;;;;;;;13.00;8.25;;;;;;;;5060500;28;10569;-82
2022/02/17 07:22:19;;;;;;;;;7.50;7.00;;;;;;;;5059494;28;9849;-84
2022/02/17 07:24:46;;;;;;;;;8.75;6.75;;;;;;;;5063557;28;9649;-86
2022/02/17 07:27:15;;;;;;;;;9.50;7.00;;;;;;;;5062674;28;9801;-84
2022/02/17 07:29:42;;;;;;;;;11.75;7.50;;;;;;;;5044580;28;9802;-83
2022/02/17 07:32:11;;;;;;;;;9.75;4.50;;;;;;;;5061194;28;9732;-84
2022/02/17 07:34:38;;;;;;;;;4.00;4.00;;;;;;;;5043379;28;9732;-85
2022/02/17 07:37:06;;;;;;;;;8.75;6.00;;;;;;;;5060711;28;10560;-83
2022/02/17 07:39:33;;;;;;;;;10.50;3.75;;;;;;;;5058374;28;9765;-79
2022/02/17 07:42:01;;;;;;;;;13.00;8.75;;;;;;;;5080510;28;9697;-79
2022/02/17 07:44:29;;;;;;;;;14.00;7.75;;;;;;;;5056806;28;9890;-80
2022/02/17 07:46:58;;;;;;;;;8.75;7.00;;;;;;;;5064333;28;9813;-82
2022/02/17 07:49:25;;;;;;;;;4.25;2.75;;;;;;;;5057022;28;9802;-76
2022/02/17 07:51:53;;;;;;;;;17.50;8.00;;;;;;;;5061331;28;9963;-78
2022/02/17 07:54:20;;;;;;;;;9.25;7.50;;;;;;;;5056539;28;9784;-77
2022/02/17 07:56:47;;;;;;;;;11.50;7.25;;;;;;;;5053493;28;9694;-78
2022/02/17 07:59:14;;;;;;;;;7.75;7.75;;;;;;;;5040322;28;9794;-79
2022/02/17 08:01:43;;;;;;;;;14.25;10.00;;;;;;;;5057651;28;9804;-77
2022/02/17 08:04:10;;;;;;;;;8.50;7.00;;;;;;;;5060970;28;9621;-77
2022/02/17 08:06:38;;;;;;;;;17.00;10.75;;;;;;;;5058298;28;9700;-77
2022/02/17 08:09:05;;;;;;;;;9.50;6.75;;;;;;;;5062999;28;9784;-79
2022/02/17 08:11:33;;;;;;;;;9.00;8.00;;;;;;;;5043275;28;9732;-77
2022/02/17 08:14:00;;;;;;;;;9.25;6.50;;;;;;;;5062591;28;9714;-77
2022/02/17 08:16:28;;;;;;;;;5.50;5.50;;;;;;;;5064670;28;9777;-80
2022/02/17 08:18:57;;;;;;;;;10.50;7.25;;;;;;;;5058721;28;9663;-79
2022/02/17 08:21:24;;;;;;;;;11.00;8.00;;;;;;;;5063464;28;9588;-78
2022/02/17 08:23:51;;;;;;;;;12.25;6.25;;;;;;;;5066099;28;9566;-77
2022/02/17 08:26:19;;;;;;;;;13.00;7.00;;;;;;;;5065796;28;9454;-78
2022/02/17 08:28:48;;;;;;;;;3.25;3.25;;;;;;;;5057082;28;9540;-85
2022/02/17 08:31:15;;;;;;;;;12.00;6.75;;;;;;;;5061905;28;9461;-79
2022/02/17 08:33:42;;;;;;;;;14.75;7.50;;;;;;;;5053382;28;9700;-77
2022/02/17 08:36:11;;;;;;;;;11.25;8.00;;;;;;;;5059228;28;9569;-86
2022/02/17 08:38:39;;;;;;;;;7.33;6.33;;;;;;;;5057337;28;9624;-78
2022/02/17 08:41:07;;;;;;;;;15.75;7.00;;;;;;;;5057681;28;9409;-81
2022/02/17 08:43:34;;;;;;;;;12.25;8.75;;;;;;;;5067028;28;9589;-87
2022/02/17 08:46:02;;;;;;;;;14.25;7.25;;;;;;;;5072924;28;9430;-91
2022/02/17 08:48:29;;;;;;;;;11.75;8.00;;;;;;;;5063966;28;9739;-91
2022/02/17 08:50:57;;;;;;;;;7.00;4.50;;;;;;;;5062048;28;9433;-90
2022/02/17 08:53:28;;;;;;;;;19.75;8.75;;;;;;;;5077899;28;9402;-88
2022/02/17 08:55:56;;;;;;;;;7.25;7.00;;;;;;;;5053385;28;9423;-91
2022/02/17 08:58:23;;;;;;;;;10.75;7.75;;;;;;;;5045831;28;9418;-91
2022/02/17 09:00:50;;;;;;;;;15.50;9.00;;;;;;;;5064381;28;9538;-88
2022/02/17 09:03:18;;;;;;;;;12.67;7.00;;;;;;;;5064304;28;9513;-87
2022/02/17 09:05:45;;;;;;;;;15.25;5.50;;;;;;;;5065210;28;9412;-90
2022/02/17 09:08:12;;;;;;;;;17.25;7.25;;;;;;;;5061226;28;9637;-87
2022/02/17 09:10:41;;;;;;;;;8.33;8.33;;;;;;;;5046297;28;9523;-91
2022/02/17 09:13:08;;;;;;;;;4.00;2.67;;;;;;;;5066405;28;9402;-91
2022/02/17 09:15:36;;;;;;;;;9.33;6.33;;;;;;;;5064006;28;9419;-91
2022/02/17 09:18:04;;;;;;;;;9.00;6.67;;;;;;;;5046770;28;9346;-91
2022/02/17 09:20:32;;;;;;;;;8.00;7.00;;;;;;;;5063634;28;9405;-88
2022/02/17 09:23:00;;;;;;;;;14.00;7.33;;;;;;;;5065085;28;9914;-92
2022/02/17 09:25:27;;;;;;;;;12.67;7.67;;;;;;;;5063604;28;9255;-90
2022/02/17 09:27:56;;;;;;;;;8.33;7.00;;;;;;;;5063959;28;9528;-85
2022/02/17 09:30:24;;;;;;;;;14.67;6.33;;;;;;;;5064461;28;9435;-90
2022/02/17 09:32:51;;;;;;;;;9.67;7.67;;;;;;;;5045490;28;9512;-90
2022/02/17 09:35:19;;;;;;;;;12.67;8.00;;;;;;;;5065521;28;9359;-87
2022/02/17 09:37:46;;;;;;;;;9.00;8.00;;;;;;;;5064128;28;9438;-89
2022/02/17 09:40:13;;;;;;;;;13.33;9.00;;;;;;;;5064646;28;9304;-91
2022/02/17 09:42:41;;;;;;;;;19.00;10.50;;;;;;;;5063020;28;9333;-91
2022/02/17 09:45:11;;;;;;;;;8.67;4.00;;;;;;;;5063973;28;9539;-89
2022/02/17 09:47:39;;;;;;;;;14.00;10.67;;;;;;;;5064450;28;9311;-89
2022/02/17 09:50:09;;;;;;;;;12.67;6.67;;;;;;;;5062572;28;9496;-91
2022/02/17 09:52:37;;;;;;;;;6.67;3.67;;;;;;;;5064413;28;9340;-89
2022/02/17 09:55:06;;;;;;;;;13.33;10.00;;;;;;;;5063182;28;9283;-91
2022/02/17 09:57:36;;;;;;;;;9.67;6.33;;;;;;;;5064563;28;10100;-90
2022/02/17 10:00:05;;;;;;;;;17.33;9.33;;;;;;;;5061714;28;9195;-87
2022/02/17 10:02:33;;;;;;;;;8.67;7.33;;;;;;;;5063379;28;10236;-91
2022/02/17 10:05:03;;;;;;;;;14.33;7.00;;;;;;;;5064617;28;10228;-91
2022/02/17 10:07:31;;;;;;;;;5.33;5.33;;;;;;;;5063065;28;9401;-89
2022/02/17 10:10:04;;;;;;;;;10.67;4.67;;;;;;;;5064286;28;9287;-91
2022/02/17 10:12:55;;;;;;;;;13.67;8.33;;;;;;;;5062578;28;9290;-85
2022/02/17 10:15:30;;;;;;;;;13.33;7.33;;;;;;;;5065496;28;9369;-89
2022/02/17 10:18:03;;;;;;;;;3.33;2.00;;;;;;;;5063184;28;9281;-91
2022/02/17 10:20:52;;;;;;;;;14.67;9.00;;;;;;;;5062341;28;9194;-91
2022/02/17 10:23:19;;;;;;;;;5.67;3.67;;;;;;;;5063637;28;9281;-91
2022/02/17 10:26:01;;;;;;;;;13.67;6.67;;;;;;;;5062992;28;9267;-90
2022/02/17 10:28:30;;;;;;;;;7.33;7.33;;;;;;;;5063019;28;10186;-92
2022/02/17 10:30:58;;;;;;;;;14.67;9.00;;;;;;;;5062548;28;9401;-91
2022/02/17 10:33:40;;;;;;;;;11.00;9.25;;;;;;;;5057894;28;9437;-91
2022/02/17 10:36:08;;;;;;;;;12.67;9.67;;;;;;;;5056280;28;9414;-91
2022/02/17 10:38:35;;;;;;;;;16.33;8.00;;;;;;;;5062025;28;9365;-89
2022/02/17 10:41:04;;;;;;;;;10.00;10.00;;;;;;;;5042278;28;9414;-86
2022/02/17 10:43:32;;;;;;;;;5.33;4.00;;;;;;;;5062509;28;9426;-90
2022/02/17 10:46:06;;;;;;;;;14.67;7.00;;;;;;;;5062360;28;9280;-91
2022/02/17 10:48:36;;;;;;;;;6.67;6.67;;;;;;;;5063070;28;9337;-88
2022/02/17 10:51:09;;;;;;;;;10.00;8.00;;;;;;;;5060501;28;9468;-88
2022/02/17 10:53:40;;;;;;;;;18.33;8.67;;;;;;;;5062906;28;9200;-86
2022/02/17 10:56:09;;;;;;;;;11.33;7.00;;;;;;;;5044623;28;9148;-87
2022/02/17 10:58:43;;;;;;;;;7.33;7.33;;;;;;;;5045451;28;9093;-87
2022/02/17 11:01:11;;;;;;;;;11.00;7.67;;;;;;;;5061656;28;9124;-91
2022/02/17 11:03:40;;;;;;;;;10.00;7.00;;;;;;;;5062819;28;9095;-90
2022/02/17 11:06:10;;;;;;;;;15.33;7.67;;;;;;;;5062865;28;9049;-91
2022/02/17 11:08:37;;;;;;;;;7.00;6.33;;;;;;;;5060464;28;9129;-89
2022/02/17 11:11:05;;;;;;;;;15.67;7.33;;;;;;;;5062846;28;8986;-89
2022/02/17 11:13:33;;;;;;;;;8.00;5.25;;;;;;;;5061302;28;9178;-88
2022/02/17 11:16:02;;;;;;;;;13.33;8.67;;;;;;;;5062465;28;8892;-84
2022/02/17 11:18:32;;;;;;;;;9.75;4.75;;;;;;;;5066522;28;8935;-87
2022/02/17 11:21:01;;;;;;;;;4.50;4.50;;;;;;;;5066048;28;9002;-87
2022/02/17 11:23:31;;;;;;;;;3.00;3.00;;;;;;;;5062886;28;9666;-88
2022/02/17 11:25:59;;;;;;;;;4.00;4.00;;;;;;;;5051199;28;8879;-86
2022/02/17 11:28:34;;;;;;;;;6.75;2.50;;;;;;;;5060058;28;8863;-90
2022/02/17 11:31:05;;;;;;;;;6.50;3.00;;;;;;;;5042448;28;8973;-91
2022/02/17 11:33:33;;;;;;;;;1.00;1.00;;;;;;;;5044610;28;8856;-89
2022/02/17 11:36:30;;;;;;;;;8.25;2.50;;;;;;;;5062280;28;8863;-87
2022/02/17 11:38:59;;;;;;;;;4.50;2.25;;;;;;;;5050306;28;9638;-89
2022/02/17 11:41:31;;;;;;;;;3.75;3.25;;;;;;;;5049721;28;8880;-89
2022/02/17 11:44:16;;;;;;;;;5.00;4.00;;;;;;;;5061654;28;8876;-83
2022/02/17 11:46:53;;;;;;;;;3.25;2.50;;;;;;;;5061916;28;8868;-88
2022/02/17 11:49:48;;;;;;;;;6.00;4.75;;;;;;;;5058697;28;8899;-85
2022/02/17 11:52:19;;;;;;;;;2.25;2.25;;;;;;;;5061210;28;8888;-87
2022/02/17 11:55:20;;;;;;;;;5.00;3.00;;;;;;;;5062494;28;8873;-86
2022/02/17 11:57:48;;;;;;;;;4.00;4.00;;;;;;;;5061074;28;8910;-85
2022/02/17 12:00:35;;;;;;;;;7.00;4.25;;;;;;;;5060212;28;8872;-87
2022/02/17 12:03:03;;;;;;;;;3.25;2.50;;;;;;;;5049277;28;8906;-85
2022/02/17 12:05:31;;;;;;;;;12.25;3.25;;;;;;;;5060667;28;8915;-87
2022/02/17 12:08:32;;;;;;;;;4.50;2.75;;;;;;;;5065090;28;8880;-87
2022/02/17 12:11:27;;;;;;;;;4.00;4.00;;;;;;;;5044212;28;10016;-87
2022/02/17 12:13:55;;;;;;;;;3.25;2.00;;;;;;;;5060916;28;8872;-87
2022/02/17 12:16:39;;;;;;;;;3.75;2.25;;;;;;;;5043741;28;8875;-88
2022/02/17 12:19:14;;;;;;;;;3.00;1.25;;;;;;;;5061469;28;8868;-87
2022/02/17 12:21:42;;;;;;;;;8.00;5.50;;;;;;;;5061104;28;8884;-86
2022/02/17 12:24:13;;;;;;;;;2.50;2.00;;;;;;;;5044459;28;8872;-87
2022/02/17 12:26:50;;;;;;;;;4.75;3.25;;;;;;;;5042759;28;9011;-88
2022/02/17 12:29:22;;;;;;;;;5.50;2.00;;;;;;;;5047839;28;8899;-88
2022/02/17 12:31:50;;;;;;;;;2.00;2.00;;;;;;;;5059156;28;8824;-87
2022/02/17 12:34:18;;;;;;;;;1.50;1.50;;;;;;;;5062004;28;8902;-88
2022/02/17 12:36:45;;;;;;;;;3.75;1.50;;;;;;;;5063814;28;8995;-84
2022/02/17 12:39:14;;;;;;;;;3.75;1.00;;;;;;;;5062750;28;8946;-85
2022/02/17 12:41:57;;;;;;;;;2.00;2.00;;;;;;;;5061954;28;9012;-86
2022/02/17 12:44:29;;;;;;;;;2.00;2.00;;;;;;;;5060774;28;9026;-86
2022/02/17 12:46:57;;;;;;;;;2.00;0.75;;;;;;;;5062086;28;8880;-85
2022/02/17 12:49:25;;;;;;;;;2.00;1.00;;;;;;;;5053647;28;8874;-87
2022/02/17 12:51:53;;;;;;;;;3.00;3.00;;;;;;;;5062622;28;8987;-87
2022/02/17 12:54:22;;;;;;;;;5.00;2.00;;;;;;;;5066016;28;8865;-86
2022/02/17 12:56:50;;;;;;;;;2.50;2.00;;;;;;;;5064197;28;9058;-86
2022/02/17 12:59:18;;;;;;;;;3.00;2.25;;;;;;;;5065261;28;8872;-87
2022/02/17 13:01:50;;;;;;;;;2.00;0.50;;;;;;;;5063497;28;8838;-87
2022/02/17 13:04:18;;;;;;;;;0.00;0.00;;;;;;;;5065203;28;8888;-85
2022/02/17 13:06:45;;;;;;;;;1.25;1.00;;;;;;;;5036530;28;8921;-86
2022/02/17 13:09:15;;;;;;;;;0.00;0.00;;;;;;;;5062559;28;8860;-87
2022/02/17 13:11:48;;;;;;;;;1.00;1.00;;;;;;;;5065218;28;8891;-83
2022/02/17 13:14:16;;;;;;;;;0.50;0.50;;;;;;;;5063830;28;9038;-85
2022/02/17 13:16:48;;;;;;;;;1.00;1.00;;;;;;;;5064920;28;8904;-86
2022/02/17 13:19:44;;;;;;;;;1.50;0.50;;;;;;;;5046215;28;8941;-82
2022/02/17 13:22:13;;;;;;;;;1.25;1.25;;;;;;;;5064772;28;8984;-85
2022/02/17 13:24:42;;;;;;;;;0.25;0.25;;;;;;;;5058555;28;8888;-84
2022/02/17 13:27:13;;;;;;;;;1.25;1.00;;;;;;;;5063380;28;8903;-86
2022/02/17 13:29:56;;;;;;;;;0.00;0.00;;;;;;;;5061174;28;8886;-86
2022/02/17 13:32:27;;;;;;;;;1.00;0.00;;;;;;;;5062034;28;8828;-87
2022/02/17 13:35:01;;;;;;;;;0.00;0.00;;;;;;;;5062506;28;8870;-88
2022/02/17 13:37:43;;;;;;;;;2.00;0.00;;;;;;;;5017538;28;8898;-88
2022/02/17 13:40:11;;;;;;;;;0.00;0.00;;;;;;;;5053966;28;8878;-88
2022/02/17 13:42:40;;;;;;;;;1.25;1.25;;;;;;;;5057921;28;8848;-89
2022/02/17 13:45:23;;;;;;;;;1.00;1.00;;;;;;;;5063493;28;8872;-86
2022/02/17 13:47:50;;;;;;;;;0.00;0.00;;;;;;;;5045585;28;8876;-88
2022/02/17 13:50:19;;;;;;;;;0.50;0.50;;;;;;;;5064142;28;8886;-86
2022/02/17 13:53:00;;;;;;;;;0.00;0.00;;;;;;;;5063864;28;8981;-86
2022/02/17 13:55:29;;;;;;;;;2.00;1.00;;;;;;;;5064416;28;8958;-85
2022/02/17 13:57:58;;;;;;;;;1.00;1.00;;;;;;;;5062162;28;8969;-88
2022/02/17 14:00:28;;;;;;;;;0.00;0.00;;;;;;;;5064051;28;8781;-86
2022/02/17 14:02:55;;;;;;;;;1.00;0.25;;;;;;;;5062574;28;8864;-88
2022/02/17 14:05:30;;;;;;;;;1.75;0.50;;;;;;;;5064193;28;8876;-87
2022/02/17 14:07:58;;;;;;;;;1.00;1.00;;;;;;;;5045546;28;9026;-87
2022/02/17 14:10:25;;;;;;;;;2.00;1.00;;;;;;;;5062707;28;8872;-88
2022/02/17 14:12:53;;;;;;;;;3.75;0.00;;;;;;;;5063938;28;8856;-88
2022/02/17 14:15:22;;;;;;;;;1.00;1.00;;;;;;;;5049606;28;8885;-87
2022/02/17 14:17:49;;;;;;;;;1.75;1.75;;;;;;;;5046872;28;8884;-87
2022/02/17 14:20:18;;;;;;;;;2.50;1.00;;;;;;;;5066955;28;8925;-84
2022/02/17 14:22:45;;;;;;;;;2.75;2.00;;;;;;;;5060999;28;8969;-87
2022/02/17 14:25:13;;;;;;;;;1.00;1.00;;;;;;;;5078815;28;8893;-87
2022/02/17 14:27:40;;;;;;;;;3.50;2.00;;;;;;;;5062726;28;8925;-88
2022/02/17 14:30:08;;;;;;;;;1.00;1.00;;;;;;;;5060186;28;8879;-88
2022/02/17 14:32:37;;;;;;;;;1.00;1.00;;;;;;;;5060831;28;8890;-87
2022/02/17 14:35:14;;;;;;;;;2.75;1.00;;;;;;;;5045472;28;8918;-88
2022/02/17 14:37:43;;;;;;;;;4.25;3.00;;;;;;;;5076166;28;9657;-85
2022/02/17 14:40:13;;;;;;;;;4.25;1.00;;;;;;;;5063223;28;8892;-86
2022/02/17 14:42:41;;;;;;;;;2.00;2.00;;;;;;;;5062604;28;8868;-87
2022/02/17 14:45:09;;;;;;;;;2.75;2.00;;;;;;;;5050583;28;8892;-87
2022/02/17 14:47:38;;;;;;;;;2.00;2.00;;;;;;;;5061851;28;8844;-86
2022/02/17 14:50:06;;;;;;;;;3.50;2.25;;;;;;;;5036624;28;8869;-88
2022/02/17 14:52:33;;;;;;;;;0.00;0.00;;;;;;;;5062591;28;8867;-87
2022/02/17 14:55:01;;;;;;;;;2.00;2.00;;;;;;;;5061788;28;8883;-86
2022/02/17 14:57:28;;;;;;;;;3.00;1.00;;;;;;;;5060949;28;8879;-86
2022/02/17 14:59:55;;;;;;;;;4.25;3.00;;;;;;;;5034886;28;8890;-86
2022/02/17 15:02:23;;;;;;;;;1.25;1.25;;;;;;;;5061334;28;9624;-85
2022/02/17 15:04:51;;;;;;;;;2.50;1.00;;;;;;;;5061732;28;8901;-87
2022/02/17 15:07:19;;;;;;;;;1.50;1.50;;;;;;;;5061181;28;8973;-86